Airfield :
LOGIN :

Register | Disclaimer

   EN    FR    IT 

 










Legend :    VFR   Marginal VFR   IFR   Intensive IFR   Very Intensive IFR
Visi :
Ceiling :
>= 8 km
>= 3000ft
5 to 8 km
1000 to 3000 ft
1500m to 5 km
500 to 1000 ft
800 to 1500m
200 to 500 ft
< 800m
< 200 ft
Symbols :   Thunderstorms  Fog  Heavy snow  Heavy precipitations  Wind > 20 kt
SIGMETs :     Misc.  Thunderstorms  Icing  Turbulence  Mountain Waves  Volcanic Ashes






- Airport Elevation : 164 ft
- IATA code : VBY


ESSV - Visby

CURRENT METAR :
  • 031850Z 14017KT 9999 BKN022 03/M00 Q1007 R21/09//95

EXPIRED METARs :
  • 031820Z 14017KT 9999 BKN021 03/M00 Q1008 R21/09//95
  • 031750Z 14015KT 9999 BKN018 03/M00 Q1008 R21/09//95
  • 031720Z 13015KT 9999 BKN018 03/M00 Q1008 R21/09//95
  • 031650Z 13012KT 9999 BKN021 03/M01 Q1009 R21/09//95
  • 031620Z 14013KT 9999 OVC020 02/M01 Q1009 R21/09//95

TAF TAF ESSV
Valid from the 03 at 18:00 until the 03 at 22:00 UTC


031730Z 0318/0322 14012G24KT 9999 BKN020
PROB40 0318/0319 -RASN BKN018
PROB40 0319/0322 4000 RA BKN008



MET'MAP, your aeronautical weather chart ! - Copyright ORBIFLY December 2007 - Disclaimer

ORBIFLY MET'MAP TEAM :

Programming & Development : Alexandra Zaïnal
Concept & original design : Baudouin d'Aumeries
Assistance for programming : Marc-Olivier Méhu
Technical & hardware support : Manuel Goepfert

Contact : metmap@orbifly.com




SOURCES & CREDITS :

   NOAA